Time;durP1;ratioP1;P1;durP2;ratioP2;P2;SDS_P1;SDS_P2;PMS_P1;PMS_P2;Temp;Humidity;BMP_temperature;BMP_pressure;BME280_temperature;BME280_humidity;BME280_pressure;Samples;Min_cycle;Max_cycle;Signal;HPM_P1;HPM_P2
2023/01/15 00:02:30;;;;;;;4.13;2.60;;;7.70;99.90;;;;;;5239889;28;20428;-50
2023/01/15 00:05:02;;;;;;;1.23;1.20;;;7.70;99.90;;;;;;5241167;28;20558;-51
2023/01/15 00:07:33;;;;;;;1.93;1.43;;;7.70;99.90;;;;;;5227236;28;20448;-51
2023/01/15 00:10:04;;;;;;;1.50;1.40;;;7.80;99.90;;;;;;5243944;28;20453;-50
2023/01/15 00:12:34;;;;;;;7.37;5.60;;;7.70;99.90;;;;;;5242261;28;20183;-49
2023/01/15 00:15:06;;;;;;;3.47;2.93;;;7.80;99.90;;;;;;5202880;28;20425;-52
2023/01/15 00:17:36;;;;;;;4.00;2.03;;;7.80;99.90;;;;;;5215456;28;20531;-50
2023/01/15 00:20:08;;;;;;;1.20;1.20;;;7.90;99.90;;;;;;5243817;28;20475;-51
2023/01/15 00:22:39;;;;;;;5.40;2.07;;;7.90;99.90;;;;;;5223009;28;20650;-51
2023/01/15 00:27:59;;;;;;;3.33;2.90;;;7.80;99.90;;;;;;5242255;28;20417;-52
2023/01/15 00:30:30;;;;;;;13.00;6.20;;;7.80;99.90;;;;;;5243845;28;20429;-51
2023/01/15 00:33:01;;;;;;;2.40;2.20;;;7.80;99.90;;;;;;5231415;28;20188;-50
2023/01/15 00:35:31;;;;;;;2.80;2.60;;;7.90;99.90;;;;;;5233606;28;20190;-51
2023/01/15 00:38:02;;;;;;;2.00;1.30;;;7.80;99.90;;;;;;5237441;28;20238;-50
2023/01/15 00:40:33;;;;;;;3.33;2.90;;;7.70;99.90;;;;;;5218487;28;20639;-49
2023/01/15 00:43:04;;;;;;;6.37;3.17;;;7.80;99.90;;;;;;5227918;28;20197;-49
2023/01/15 00:45:34;;;;;;;1.80;1.50;;;7.90;99.90;;;;;;5246238;28;20202;-48
2023/01/15 00:48:07;;;;;;;1.80;1.23;;;7.80;99.90;;;;;;5232898;28;20571;-48
2023/01/15 00:50:37;;;;;;;1.03;1.03;;;7.90;99.90;;;;;;5237076;28;20615;-51
2023/01/15 00:53:08;;;;;;;1.63;1.30;;;7.90;99.90;;;;;;5240381;28;20526;-52
2023/01/15 00:55:39;;;;;;;2.20;1.80;;;7.90;99.90;;;;;;5234007;28;20600;-49
2023/01/15 00:58:09;;;;;;;2.83;2.07;;;7.90;99.90;;;;;;5248916;28;20785;-50
2023/01/15 01:00:40;;;;;;;3.17;2.87;;;7.90;99.90;;;;;;5230465;28;20183;-49
2023/01/15 01:03:11;;;;;;;1.90;1.60;;;7.90;99.90;;;;;;5248732;28;20212;-51
2023/01/15 01:05:41;;;;;;;2.77;2.57;;;7.80;99.90;;;;;;5233098;28;20251;-51
2023/01/15 01:08:12;;;;;;;6.10;1.93;;;7.80;99.90;;;;;;5235832;28;20205;-51
2023/01/15 01:10:43;;;;;;;4.23;2.90;;;7.80;99.90;;;;;;5240746;28;20182;-49
2023/01/15 01:13:14;;;;;;;1.60;1.60;;;7.80;99.90;;;;;;5232867;28;20428;-50
2023/01/15 01:15:44;;;;;;;1.50;1.40;;;7.70;99.90;;;;;;5248672;28;20214;-51
2023/01/15 01:18:15;;;;;;;1.80;1.70;;;7.70;99.90;;;;;;5250064;28;20236;-50
2023/01/15 01:20:46;;;;;;;1.73;1.60;;;7.70;99.90;;;;;;5247288;28;20218;-48
2023/01/15 01:23:17;;;;;;;2.63;1.80;;;7.80;99.90;;;;;;5238134;28;20636;-51
2023/01/15 01:25:47;;;;;;;1.63;1.57;;;7.70;99.90;;;;;;5218831;28;20320;-50
2023/01/15 01:28:18;;;;;;;1.90;1.20;;;7.80;99.90;;;;;;5251556;28;20251;-49
2023/01/15 01:30:49;;;;;;;2.23;1.57;;;7.80;99.90;;;;;;5231867;28;20186;-48
2023/01/15 01:33:20;;;;;;;1.40;1.40;;;7.80;99.90;;;;;;5240215;28;20235;-49
2023/01/15 01:35:50;;;;;;;4.50;1.33;;;7.80;99.90;;;;;;5244743;28;20584;-49
2023/01/15 01:38:21;;;;;;;0.70;0.70;;;7.80;99.90;;;;;;5247089;28;20209;-50
2023/01/15 01:40:52;;;;;;;3.33;2.17;;;7.90;99.90;;;;;;5226352;28;20536;-48
2023/01/15 01:43:26;;;;;;;1.70;1.47;;;8.00;99.90;;;;;;5231578;28;20186;-49
2023/01/15 01:45:56;;;;;;;1.33;1.13;;;8.00;99.90;;;;;;5225148;28;20981;-50
2023/01/15 01:48:31;;;;;;;1.37;1.27;;;8.10;99.90;;;;;;5240920;28;20569;-49
2023/01/15 01:51:04;;;;;;;2.33;2.23;;;8.10;99.90;;;;;;5243113;28;20186;-49
2023/01/15 01:53:35;;;;;;;1.70;1.23;;;8.20;99.90;;;;;;5244582;28;20492;-48
2023/01/15 01:56:16;;;;;;;1.90;1.80;;;8.00;99.90;;;;;;5224395;28;20437;-50
2023/01/15 01:58:52;;;;;;;1.70;1.60;;;8.00;99.90;;;;;;5239153;28;20200;-50
2023/01/15 02:01:24;;;;;;;1.40;1.30;;;8.00;99.90;;;;;;5240910;28;20430;-50
2023/01/15 02:03:55;;;;;;;8.10;1.90;;;8.00;99.90;;;;;;5245474;28;20433;-50
2023/01/15 02:06:27;;;;;;;1.57;1.47;;;8.10;99.90;;;;;;5251426;28;20493;-50
2023/01/15 02:08:58;;;;;;;3.60;2.20;;;8.00;99.90;;;;;;5251883;28;20476;-52
2023/01/15 02:11:30;;;;;;;2.50;1.50;;;8.10;99.90;;;;;;5262362;28;20435;-50
2023/01/15 02:14:20;;;;;;;4.10;1.53;;;8.00;99.90;;;;;;5245070;28;20183;-50
2023/01/15 02:17:09;;;;;;;2.37;1.50;;;8.20;99.90;;;;;;5228631;28;20469;-50
2023/01/15 02:20:12;;;;;;;4.43;1.60;;;8.10;99.90;;;;;;5230411;28;20492;-50
2023/01/15 02:23:09;;;;;;;1.43;1.43;;;8.10;99.90;;;;;;5249832;28;20435;-51
2023/01/15 02:26:12;;;;;;;1.50;1.07;;;8.10;99.90;;;;;;5245231;28;20460;-49
2023/01/15 02:28:47;;;;;;;1.40;1.30;;;8.10;99.90;;;;;;5248865;28;20449;-50
2023/01/15 02:31:32;;;;;;;1.43;1.10;;;8.10;99.90;;;;;;5240579;28;20433;-50
2023/01/15 02:34:28;;;;;;;1.47;1.37;;;8.20;99.90;;;;;;5233334;28;20575;-49
2023/01/15 02:37:11;;;;;;;2.10;2.00;;;8.20;99.90;;;;;;5239030;28;20950;-49
2023/01/15 02:39:45;;;;;;;2.10;1.93;;;8.20;99.90;;;;;;5220007;28;20461;-49
2023/01/15 02:42:18;;;;;;;4.60;1.40;;;8.20;99.90;;;;;;5245541;28;20420;-50
2023/01/15 02:44:53;;;;;;;1.33;1.23;;;8.20;99.90;;;;;;5239238;28;20465;-49
2023/01/15 02:47:28;;;;;;;1.40;1.20;;;8.20;99.90;;;;;;5245232;28;20431;-49
2023/01/15 02:50:03;;;;;;;2.03;1.90;;;8.20;99.90;;;;;;5225826;28;20525;-49
2023/01/15 02:52:44;;;;;;;0.90;0.90;;;8.10;99.90;;;;;;5241184;28;20433;-52
2023/01/15 02:55:31;;;;;;;2.33;1.33;;;8.20;99.90;;;;;;5211360;28;20977;-50
2023/01/15 02:58:08;;;;;;;0.87;0.87;;;8.20;99.90;;;;;;5245415;28;20828;-50
2023/01/15 03:00:43;;;;;;;0.70;0.70;;;8.20;99.90;;;;;;5225686;28;20444;-53
2023/01/15 03:03:20;;;;;;;4.63;0.90;;;8.20;99.90;;;;;;5235716;28;20420;-50
2023/01/15 03:06:01;;;;;;;1.00;0.90;;;8.30;99.90;;;;;;5243157;28;20464;-49
2023/01/15 03:08:31;;;;;;;1.60;1.17;;;8.20;99.90;;;;;;5229555;28;20840;-50
2023/01/15 03:11:07;;;;;;;0.93;0.93;;;8.20;99.90;;;;;;5237860;28;20555;-50
2023/01/15 03:13:43;;;;;;;2.40;1.27;;;8.20;99.90;;;;;;5248082;28;20261;-51
2023/01/15 03:16:38;;;;;;;1.13;1.07;;;8.20;99.90;;;;;;5248014;28;20614;-51
2023/01/15 03:19:39;;;;;;;2.90;1.57;;;8.20;99.90;;;;;;5227576;28;21035;-50
2023/01/15 03:22:25;;;;;;;2.03;1.10;;;8.30;99.90;;;;;;5236372;28;20436;-52
2023/01/15 03:25:19;;;;;;;1.30;1.00;;;8.20;99.90;;;;;;5228105;28;20436;-52
2023/01/15 03:27:54;;;;;;;1.33;1.30;;;8.30;99.90;;;;;;5218614;28;20433;-50
2023/01/15 03:30:25;;;;;;;1.30;1.20;;;8.40;99.90;;;;;;5227420;28;20783;-51
2023/01/15 03:32:55;;;;;;;2.93;1.10;;;8.40;99.90;;;;;;5244615;28;20439;-51
2023/01/15 03:35:49;;;;;;;3.87;1.07;;;8.30;99.90;;;;;;5248475;28;20492;-51
2023/01/15 03:38:22;;;;;;;0.97;0.97;;;8.30;99.90;;;;;;5228304;28;20988;-50
2023/01/15 03:41:09;;;;;;;0.90;0.90;;;8.40;99.90;;;;;;5228282;28;20436;-49
2023/01/15 03:43:58;;;;;;;1.20;1.20;;;8.40;99.90;;;;;;5248081;28;20428;-50
2023/01/15 03:46:52;;;;;;;0.93;0.93;;;8.30;99.90;;;;;;5239954;28;20893;-48
2023/01/15 03:49:41;;;;;;;0.70;0.70;;;8.30;99.90;;;;;;5231426;28;20483;-51
2023/01/15 03:52:18;;;;;;;1.03;1.03;;;8.40;99.90;;;;;;5240431;28;20433;-53
2023/01/15 03:55:17;;;;;;;1.10;1.10;;;8.30;99.90;;;;;;5244566;28;20440;-49
2023/01/15 03:58:18;;;;;;;0.60;0.60;;;8.30;99.90;;;;;;5225616;28;20948;-51
2023/01/15 04:00:57;;;;;;;5.30;1.20;;;8.30;99.90;;;;;;5237423;28;20439;-54
2023/01/15 04:03:29;;;;;;;0.77;0.77;;;8.40;99.90;;;;;;5242990;28;20419;-51
2023/01/15 04:06:02;;;;;;;2.10;0.73;;;8.30;99.90;;;;;;5228931;28;20452;-48
2023/01/15 04:08:37;;;;;;;0.80;0.80;;;8.30;99.90;;;;;;5229341;28;20455;-50
2023/01/15 04:11:08;;;;;;;2.30;0.70;;;8.40;99.90;;;;;;5249772;28;20428;-50
2023/01/15 04:13:38;;;;;;;0.30;0.30;;;8.40;99.90;;;;;;5246743;28;20432;-49
2023/01/15 04:16:09;;;;;;;0.30;0.30;;;8.10;99.90;;;;;;5228733;28;20214;-50
2023/01/15 04:18:40;;;;;;;0.60;0.40;;;7.80;99.90;;;;;;5245715;28;20222;-51
2023/01/15 04:21:11;;;;;;;0.30;0.30;;;7.60;99.90;;;;;;5246771;28;20455;-49
2023/01/15 04:23:42;;;;;;;2.67;0.73;;;7.50;99.90;;;;;;5247819;28;20600;-50
2023/01/15 04:26:13;;;;;;;1.40;0.30;;;7.40;99.90;;;;;;5228393;28;20209;-52
2023/01/15 04:28:44;;;;;;;0.60;0.30;;;7.30;99.90;;;;;;5247301;28;20207;-51
2023/01/15 04:31:14;;;;;;;0.37;0.37;;;7.20;99.90;;;;;;5229900;28;20831;-49
2023/01/15 04:33:45;;;;;;;0.40;0.40;;;7.10;99.90;;;;;;5249659;28;20182;-49
2023/01/15 04:36:16;;;;;;;0.40;0.40;;;6.70;99.90;;;;;;5228416;28;20185;-51
2023/01/15 04:38:46;;;;;;;2.27;0.40;;;6.40;99.90;;;;;;5240225;28;20226;-49
2023/01/15 04:44:06;;;;;;;0.40;0.40;;;6.00;99.90;;;;;;5252051;28;20200;-54
2023/01/15 04:46:41;;;;;;;0.40;0.40;;;5.80;99.90;;;;;;5237654;28;20812;-51
2023/01/15 04:49:16;;;;;;;0.30;0.30;;;5.70;99.90;;;;;;5243393;28;22523;-51
2023/01/15 04:51:47;;;;;;;0.73;0.40;;;5.70;99.90;;;;;;5246104;28;20455;-50
2023/01/15 04:54:18;;;;;;;0.50;0.40;;;5.60;99.90;;;;;;5243002;28;20518;-50
2023/01/15 04:56:51;;;;;;;1.70;0.60;;;5.50;99.90;;;;;;5237708;28;20621;-48
2023/01/15 04:59:25;;;;;;;2.23;0.50;;;5.50;99.90;;;;;;5224910;28;20826;-48
2023/01/15 05:01:56;;;;;;;1.20;0.70;;;5.40;99.90;;;;;;5244953;28;20433;-51
2023/01/15 05:04:26;;;;;;;1.80;0.50;;;5.30;99.90;;;;;;5242711;28;20931;-52
2023/01/15 05:06:57;;;;;;;1.17;0.50;;;5.30;99.90;;;;;;5245045;28;20662;-52
2023/01/15 05:09:28;;;;;;;1.10;0.30;;;5.30;99.90;;;;;;5244780;28;20205;-50
2023/01/15 05:11:58;;;;;;;0.97;0.27;;;5.30;99.90;;;;;;5245842;28;20697;-51
2023/01/15 05:14:29;;;;;;;1.23;0.30;;;5.20;99.90;;;;;;5242458;28;20187;-51
2023/01/15 05:17:00;;;;;;;0.43;0.40;;;5.20;99.90;;;;;;5245069;28;20193;-49
2023/01/15 05:19:31;;;;;;;1.90;0.40;;;5.10;99.90;;;;;;5240264;28;20478;-49
2023/01/15 05:22:02;;;;;;;0.20;0.20;;;5.10;99.90;;;;;;5221741;28;20190;-49
2023/01/15 05:24:32;;;;;;;0.83;0.30;;;5.20;99.90;;;;;;5235573;28;20186;-49
2023/01/15 05:27:04;;;;;;;2.83;0.40;;;5.20;99.90;;;;;;5218319;28;23596;-49
2023/01/15 05:29:35;;;;;;;0.47;0.40;;;5.10;99.90;;;;;;5241526;28;20351;-49
2023/01/15 05:32:05;;;;;;;2.03;0.30;;;5.20;99.90;;;;;;5220740;28;20494;-49
2023/01/15 05:34:36;;;;;;;3.10;0.63;;;5.20;99.90;;;;;;5222896;28;20241;-49
2023/01/15 05:37:07;;;;;;;0.60;0.37;;;5.20;99.90;;;;;;5227757;28;20190;-51
2023/01/15 05:39:37;;;;;;;0.40;0.40;;;5.20;99.90;;;;;;5222311;28;20317;-50
2023/01/15 05:42:08;;;;;;;0.87;0.60;;;5.20;99.90;;;;;;5240363;28;20285;-50
2023/01/15 05:44:39;;;;;;;0.50;0.40;;;5.10;99.90;;;;;;5239285;28;20194;-49
2023/01/15 05:47:10;;;;;;;0.30;0.30;;;5.20;99.90;;;;;;5241029;28;20298;-51
2023/01/15 05:49:40;;;;;;;1.60;0.53;;;5.10;99.90;;;;;;5245464;28;20213;-49
2023/01/15 05:52:11;;;;;;;0.83;0.30;;;5.20;99.90;;;;;;5237270;28;20181;-49
2023/01/15 05:54:42;;;;;;;0.40;0.40;;;5.20;99.90;;;;;;5241993;28;20181;-49
2023/01/15 05:57:12;;;;;;;6.83;0.43;;;5.20;99.90;;;;;;5249698;28;20265;-49
2023/01/15 05:59:43;;;;;;;0.63;0.47;;;5.10;99.90;;;;;;5247898;28;20213;-52
2023/01/15 06:02:14;;;;;;;6.37;0.33;;;5.10;99.90;;;;;;5232750;28;20257;-49
2023/01/15 06:04:44;;;;;;;0.70;0.70;;;5.20;99.90;;;;;;5243642;28;20651;-49
2023/01/15 06:07:18;;;;;;;0.70;0.70;;;5.20;99.90;;;;;;5247952;28;20202;-50
2023/01/15 06:09:49;;;;;;;1.23;0.60;;;5.20;99.90;;;;;;5226917;28;20373;-50
2023/01/15 06:12:19;;;;;;;2.90;0.70;;;5.20;99.90;;;;;;5228755;28;20516;-50
2023/01/15 06:14:50;;;;;;;2.40;0.60;;;5.20;99.90;;;;;;5232461;28;20631;-51
2023/01/15 06:17:21;;;;;;;1.03;0.67;;;5.20;99.90;;;;;;5249139;28;20186;-49
2023/01/15 06:19:51;;;;;;;0.70;0.50;;;5.20;99.90;;;;;;5229910;28;20308;-51
2023/01/15 06:22:22;;;;;;;1.50;0.60;;;5.10;99.90;;;;;;5241524;28;20181;-49
2023/01/15 06:24:52;;;;;;;5.57;0.70;;;5.20;99.90;;;;;;5245669;28;20181;-48
2023/01/15 06:27:23;;;;;;;5.30;1.07;;;5.10;99.90;;;;;;5253135;28;20236;-49
2023/01/15 06:29:56;;;;;;;0.70;0.70;;;5.20;99.90;;;;;;5227073;28;20213;-50
2023/01/15 06:32:27;;;;;;;0.57;0.57;;;5.10;99.90;;;;;;5213109;28;20525;-50
2023/01/15 06:34:57;;;;;;;0.60;0.50;;;5.10;99.90;;;;;;5229904;28;20436;-50
2023/01/15 06:37:29;;;;;;;1.03;0.67;;;5.10;99.90;;;;;;5231035;28;20271;-50
2023/01/15 06:39:59;;;;;;;0.73;0.40;;;5.10;99.90;;;;;;5244745;28;20758;-50
2023/01/15 06:48:09;;;;;;;0.73;0.30;;;5.10;99.90;;;;;;5254348;28;20885;-49
2023/01/15 06:50:40;;;;;;;0.40;0.30;;;5.10;99.90;;;;;;5244368;28;20522;-49
2023/01/15 06:53:11;;;;;;;0.87;0.60;;;5.10;99.90;;;;;;5237979;28;20214;-49
2023/01/15 06:55:42;;;;;;;0.53;0.40;;;5.10;99.90;;;;;;5226988;28;20187;-49
2023/01/15 06:58:13;;;;;;;2.60;0.97;;;5.10;99.90;;;;;;5245699;28;20460;-49
2023/01/15 07:00:45;;;;;;;0.93;0.50;;;5.10;99.90;;;;;;5251886;28;20182;-50
2023/01/15 07:03:16;;;;;;;4.73;0.63;;;5.10;99.90;;;;;;5229999;28;20749;-51
2023/01/15 07:05:47;;;;;;;0.50;0.50;;;5.10;99.90;;;;;;5245817;28;20468;-50
2023/01/15 07:08:17;;;;;;;1.50;0.70;;;5.20;99.90;;;;;;5235288;28;20671;-49
2023/01/15 07:10:48;;;;;;;0.97;0.60;;;5.20;99.90;;;;;;5238015;28;20547;-49
2023/01/15 07:13:18;;;;;;;0.97;0.60;;;5.20;99.90;;;;;;5229559;28;20204;-51
2023/01/15 07:15:49;;;;;;;0.80;0.80;;;5.20;99.90;;;;;;5244449;28;20198;-49
2023/01/15 07:18:20;;;;;;;0.73;0.73;;;5.30;99.90;;;;;;5242214;28;20216;-49
2023/01/15 07:20:57;;;;;;;0.90;0.90;;;5.20;99.90;;;;;;5234537;28;20565;-50
2023/01/15 07:23:28;;;;;;;0.57;0.50;;;5.20;99.90;;;;;;5245453;28;20185;-49
2023/01/15 07:25:58;;;;;;;0.43;0.30;;;5.20;99.90;;;;;;5243530;28;20512;-49
2023/01/15 07:28:30;;;;;;;1.80;0.70;;;5.20;99.90;;;;;;5221876;28;20210;-49
2023/01/15 07:31:00;;;;;;;1.00;1.00;;;5.20;99.90;;;;;;5231652;28;20180;-49
2023/01/15 07:33:31;;;;;;;1.40;1.03;;;5.20;99.90;;;;;;5236729;28;20440;-48
2023/01/15 07:36:02;;;;;;;1.20;0.63;;;5.10;99.90;;;;;;5245486;28;20780;-49
2023/01/15 07:38:33;;;;;;;6.43;1.00;;;5.20;99.90;;;;;;5242347;28;20198;-50
2023/01/15 07:49:49;;;;;;;1.70;1.20;;;5.20;99.90;;;;;;5251616;28;20492;-49
2023/01/15 07:52:21;;;;;;;0.83;0.73;;;5.10;99.90;;;;;;5259034;28;20972;-49
2023/01/15 07:54:52;;;;;;;1.87;1.23;;;5.20;99.90;;;;;;5240288;28;20427;-50
2023/01/15 07:57:23;;;;;;;2.13;2.03;;;5.20;99.90;;;;;;5244854;28;20845;-50
2023/01/15 07:59:53;;;;;;;2.00;1.17;;;5.20;99.90;;;;;;5240184;28;20216;-51
2023/01/15 08:02:24;;;;;;;1.13;0.80;;;5.20;99.90;;;;;;5250171;28;20436;-49
2023/01/15 08:04:55;;;;;;;2.13;1.67;;;5.10;99.90;;;;;;5229678;28;20194;-54
2023/01/15 08:07:26;;;;;;;4.00;2.27;;;5.10;99.90;;;;;;5222042;28;20462;-54
2023/01/15 08:09:57;;;;;;;2.10;2.00;;;5.10;99.90;;;;;;5246558;28;20215;-50
2023/01/15 08:15:17;;;;;;;5.40;2.13;;;5.10;99.90;;;;;;5245823;28;20269;-49
2023/01/15 08:17:49;;;;;;;1.77;1.67;;;5.20;99.90;;;;;;5223270;28;20495;-51
2023/01/15 08:20:23;;;;;;;1.77;1.60;;;5.20;99.90;;;;;;5234116;28;20638;-49
2023/01/15 08:22:54;;;;;;;0.90;0.90;;;5.10;99.90;;;;;;5241696;28;21751;-51
2023/01/15 08:25:24;;;;;;;1.60;1.50;;;5.20;99.90;;;;;;5225560;28;20470;-49
2023/01/15 08:28:01;;;;;;;1.30;1.30;;;5.20;99.90;;;;;;5244961;28;20186;-51
2023/01/15 08:30:32;;;;;;;1.63;1.50;;;5.30;99.90;;;;;;5223466;28;20177;-49
2023/01/15 08:33:02;;;;;;;1.67;1.40;;;5.40;99.90;;;;;;5229539;28;20440;-48
2023/01/15 08:35:33;;;;;;;2.23;1.00;;;5.30;99.90;;;;;;5244328;28;20271;-50
2023/01/15 08:38:07;;;;;;;2.80;1.00;;;5.20;99.90;;;;;;5242379;28;20202;-50
2023/01/15 08:40:57;;;;;;;1.80;1.70;;;5.30;99.90;;;;;;5238852;28;20623;-50
2023/01/15 08:43:31;;;;;;;0.97;0.90;;;5.20;99.90;;;;;;5240069;28;20471;-50
2023/01/15 08:46:04;;;;;;;1.33;0.73;;;5.20;99.90;;;;;;5227088;28;20886;-51
2023/01/15 08:48:34;;;;;;;1.27;0.83;;;5.20;99.90;;;;;;5227087;28;20494;-50
2023/01/15 08:51:08;;;;;;;0.67;0.67;;;5.20;99.90;;;;;;5234172;28;20519;-49
2023/01/15 08:53:39;;;;;;;1.83;1.30;;;5.30;99.90;;;;;;5244632;28;20559;-50
2023/01/15 08:56:14;;;;;;;2.43;1.23;;;5.30;99.90;;;;;;5208857;28;20440;-51
2023/01/15 08:58:46;;;;;;;0.90;0.90;;;5.30;99.90;;;;;;5248216;28;20462;-51
2023/01/15 09:01:16;;;;;;;3.40;1.47;;;5.40;99.90;;;;;;5241267;28;20443;-49
2023/01/15 09:03:47;;;;;;;2.10;1.77;;;5.40;99.90;;;;;;5236929;28;20521;-50
2023/01/15 09:06:18;;;;;;;5.20;1.93;;;5.40;99.90;;;;;;5236503;28;20300;-51
2023/01/15 09:08:48;;;;;;;1.83;1.73;;;5.40;99.90;;;;;;5244311;28;20206;-50
2023/01/15 09:11:19;;;;;;;1.67;1.13;;;5.50;99.90;;;;;;5236302;28;20294;-50
2023/01/15 09:13:50;;;;;;;6.23;1.33;;;5.50;99.90;;;;;;5247452;28;20203;-50
2023/01/15 09:16:21;;;;;;;1.13;1.07;;;5.50;99.90;;;;;;5238496;28;20191;-48
2023/01/15 09:18:52;;;;;;;2.80;0.97;;;5.60;99.90;;;;;;5241215;28;20634;-49
2023/01/15 09:21:23;;;;;;;1.17;1.07;;;5.50;99.90;;;;;;5259754;28;20188;-51
2023/01/15 09:23:53;;;;;;;0.90;0.80;;;5.60;99.90;;;;;;5255273;28;20436;-49
2023/01/15 09:26:33;;;;;;;1.20;1.20;;;5.60;99.90;;;;;;5245061;28;20745;-50
2023/01/15 09:29:05;;;;;;;2.13;0.80;;;5.60;99.90;;;;;;5245123;28;20274;-51
2023/01/15 09:31:35;;;;;;;9.93;1.30;;;5.60;99.90;;;;;;5237390;28;20945;-52
2023/01/15 09:34:06;;;;;;;1.37;1.27;;;5.60;99.90;;;;;;5211780;28;20452;-54
2023/01/15 09:36:37;;;;;;;0.97;0.97;;;5.70;99.90;;;;;;5230476;28;20182;-50
2023/01/15 09:39:08;;;;;;;3.33;1.30;;;5.60;99.90;;;;;;5222734;28;20206;-49
2023/01/15 09:42:09;;;;;;;2.00;1.10;;;5.70;99.90;;;;;;5246217;28;20190;-49
2023/01/15 09:44:48;;;;;;;2.60;1.50;;;5.80;99.90;;;;;;5242877;28;20445;-51
2023/01/15 09:47:54;;;;;;;1.00;1.00;;;5.80;99.90;;;;;;5241437;28;21018;-52
2023/01/15 09:50:34;;;;;;;1.53;1.43;;;5.80;99.90;;;;;;5235793;28;20785;-51
2023/01/15 09:53:27;;;;;;;0.90;0.90;;;5.80;99.90;;;;;;5248294;28;20848;-51
2023/01/15 09:56:01;;;;;;;1.00;1.00;;;5.90;99.90;;;;;;5251948;28;20448;-51
2023/01/15 09:58:35;;;;;;;3.73;1.00;;;6.00;99.90;;;;;;5246848;28;20474;-52
2023/01/15 10:01:13;;;;;;;1.90;1.57;;;6.00;99.90;;;;;;5240238;28;20438;-51
2023/01/15 10:03:55;;;;;;;1.60;0.93;;;6.00;99.90;;;;;;5201623;28;20447;-50
2023/01/15 10:06:49;;;;;;;1.37;1.00;;;6.10;99.90;;;;;;5235176;28;20492;-51
2023/01/15 10:09:26;;;;;;;1.40;0.73;;;6.10;99.90;;;;;;5237069;28;20596;-53
2023/01/15 10:15:12;;;;;;;1.93;1.50;;;6.20;99.90;;;;;;5249223;28;20428;-50
2023/01/15 10:17:47;;;;;;;5.00;2.20;;;6.40;99.90;;;;;;5244890;28;20443;-51
2023/01/15 10:20:52;;;;;;;4.30;3.33;;;6.40;99.90;;;;;;5242878;28;20860;-49
2023/01/15 10:23:38;;;;;;;2.87;2.67;;;6.60;99.90;;;;;;5251269;28;20432;-52
2023/01/15 10:26:34;;;;;;;3.93;1.80;;;6.70;99.90;;;;;;5242262;28;21027;-52
2023/01/15 10:29:29;;;;;;;2.93;1.40;;;6.70;99.90;;;;;;5240997;28;20459;-48
2023/01/15 10:32:20;;;;;;;4.37;1.20;;;6.90;99.90;;;;;;5247285;28;20443;-51
2023/01/15 10:35:00;;;;;;;1.27;1.20;;;6.90;99.90;;;;;;5246277;28;20432;-51
2023/01/15 10:37:55;;;;;;;1.23;1.10;;;7.10;99.90;;;;;;5250743;28;20439;-51
2023/01/15 10:40:55;;;;;;;0.87;0.87;;;7.20;99.90;;;;;;5241604;28;20448;-52
2023/01/15 10:43:47;;;;;;;0.70;0.70;;;7.40;99.90;;;;;;5222949;28;20480;-51
2023/01/15 10:46:24;;;;;;;1.27;1.00;;;7.40;99.90;;;;;;5247728;28;20460;-53
2023/01/15 10:48:56;;;;;;;1.20;0.70;;;7.40;99.90;;;;;;5223767;28;20601;-53
2023/01/15 10:51:39;;;;;;;1.27;1.10;;;7.50;99.90;;;;;;5236346;28;20776;-52
2023/01/15 10:54:32;;;;;;;0.77;0.70;;;7.60;99.90;;;;;;5233478;28;20572;-56
2023/01/15 10:57:11;;;;;;;4.00;0.90;;;7.60;99.90;;;;;;5243235;28;20441;-53
2023/01/15 10:59:59;;;;;;;4.50;1.00;;;7.60;99.90;;;;;;5237063;28;20487;-52
2023/01/15 11:02:41;;;;;;;1.43;1.00;;;7.60;99.90;;;;;;5244568;28;20449;-49
2023/01/15 11:05:18;;;;;;;2.37;1.50;;;7.70;99.90;;;;;;5236886;28;22677;-52
2023/01/15 11:07:51;;;;;;;1.23;1.13;;;7.70;99.90;;;;;;5233217;28;20469;-50
2023/01/15 11:10:23;;;;;;;9.97;1.70;;;7.70;99.90;;;;;;5237525;28;20431;-51
2023/01/15 11:19:43;;;;;;;1.73;1.60;;;8.10;99.90;;;;;;5248925;28;20508;-53
2023/01/15 11:22:19;;;;;;;3.60;1.20;;;8.20;99.90;;;;;;5217978;28;20464;-51
2023/01/15 11:24:51;;;;;;;1.40;1.40;;;8.20;99.90;;;;;;5212035;28;20490;-52
2023/01/15 11:27:26;;;;;;;5.33;3.03;;;8.10;99.90;;;;;;5230919;28;20988;-51
2023/01/15 11:29:59;;;;;;;2.20;2.00;;;8.10;99.90;;;;;;5233990;28;20538;-50
2023/01/15 11:32:34;;;;;;;7.77;3.37;;;8.00;99.90;;;;;;5235990;28;20459;-53
2023/01/15 11:35:15;;;;;;;3.73;2.70;;;8.00;99.90;;;;;;5249206;28;20786;-52
2023/01/15 11:37:46;;;;;;;2.83;2.63;;;8.00;99.90;;;;;;5249569;28;20520;-55
2023/01/15 11:40:23;;;;;;;2.83;2.17;;;8.00;99.90;;;;;;5250181;28;20578;-52
2023/01/15 11:51:46;;;;;;;2.50;1.70;;;8.00;99.90;;;;;;5245804;28;20578;-54
2023/01/15 11:54:17;;;;;;;1.90;1.80;;;8.10;99.90;;;;;;5232416;28;20432;-50
2023/01/15 11:56:48;;;;;;;2.10;1.43;;;7.90;99.90;;;;;;5222476;28;20436;-52
2023/01/15 11:59:20;;;;;;;2.20;2.00;;;8.00;99.90;;;;;;5218726;28;20471;-53
2023/01/15 12:01:58;;;;;;;0.90;0.80;;;7.90;99.90;;;;;;5242876;28;20647;-52
2023/01/15 12:04:34;;;;;;;2.00;0.97;;;7.80;99.90;;;;;;5224476;28;20440;-51
2023/01/15 12:07:12;;;;;;;0.87;0.87;;;7.80;99.90;;;;;;5229741;28;20969;-52
2023/01/15 12:10:05;;;;;;;3.60;1.17;;;7.80;99.90;;;;;;5237255;28;20575;-50
2023/01/15 12:13:05;;;;;;;3.03;0.77;;;7.80;99.90;;;;;;5254838;28;20431;-50
2023/01/15 12:15:56;;;;;;;1.13;1.07;;;7.80;99.90;;;;;;5225329;28;20530;-51
2023/01/15 12:18:44;;;;;;;3.80;1.30;;;7.80;99.90;;;;;;5243984;28;20498;-51
2023/01/15 12:21:35;;;;;;;1.23;0.80;;;7.90;99.90;;;;;;5245209;28;21311;-51
2023/01/15 12:24:12;;;;;;;2.43;1.07;;;8.10;99.90;;;;;;5241141;28;20443;-52
2023/01/15 12:27:02;;;;;;;1.20;1.10;;;7.90;99.90;;;;;;5245035;28;20521;-51
2023/01/15 12:30:10;;;;;;;2.53;1.40;;;7.90;99.90;;;;;;5244494;28;20473;-51
2023/01/15 12:32:45;;;;;;;3.80;0.93;;;7.90;99.90;;;;;;5248706;28;20489;-49
2023/01/15 12:35:22;;;;;;;1.90;1.50;;;8.00;99.90;;;;;;5235306;28;20444;-58
2023/01/15 12:38:00;;;;;;;4.67;1.80;;;8.00;99.90;;;;;;5245344;28;20516;-50
2023/01/15 12:40:50;;;;;;;2.10;1.23;;;8.10;99.90;;;;;;5242056;28;20435;-51
2023/01/15 12:46:28;;;;;;;1.83;1.00;;;8.00;99.90;;;;;;5253742;28;20456;-50
2023/01/15 12:49:10;;;;;;;5.20;2.37;;;8.10;99.90;;;;;;5228724;28;20464;-52
2023/01/15 12:52:10;;;;;;;2.80;1.77;;;8.00;99.90;;;;;;5244864;28;20521;-53
2023/01/15 12:55:00;;;;;;;4.27;1.63;;;7.90;99.90;;;;;;5249636;28;22215;-49
2023/01/15 12:57:38;;;;;;;8.80;2.93;;;8.00;99.90;;;;;;5226769;28;20447;-51
2023/01/15 13:00:27;;;;;;;6.57;1.87;;;7.80;99.90;;;;;;5252300;28;20462;-52
2023/01/15 13:03:23;;;;;;;2.87;2.40;;;7.80;99.90;;;;;;5253956;28;20480;-51
2023/01/15 13:06:01;;;;;;;3.30;1.73;;;7.80;99.90;;;;;;5251835;28;20487;-50
2023/01/15 13:09:10;;;;;;;5.50;2.40;;;7.80;99.90;;;;;;5243969;28;20463;-51
2023/01/15 13:11:40;;;;;;;3.43;2.20;;;7.80;99.90;;;;;;5183187;28;20439;-50
2023/01/15 13:14:15;;;;;;;3.07;1.87;;;7.80;99.90;;;;;;5160930;28;20449;-51
2023/01/15 13:17:04;;;;;;;2.63;1.83;;;8.00;99.90;;;;;;5221590;28;20681;-51
2023/01/15 13:20:05;;;;;;;3.40;2.27;;;7.90;99.90;;;;;;5243174;28;20467;-51
2023/01/15 13:23:04;;;;;;;2.53;1.30;;;7.90;99.90;;;;;;5252454;28;20455;-50
2023/01/15 13:25:59;;;;;;;2.00;1.63;;;7.90;99.90;;;;;;5222083;28;20432;-52
2023/01/15 13:28:51;;;;;;;1.30;1.20;;;7.80;99.90;;;;;;5229407;28;20966;-52
2023/01/15 13:31:48;;;;;;;3.20;0.93;;;7.60;99.90;;;;;;5245940;28;20588;-50
2023/01/15 13:34:30;;;;;;;1.10;1.10;;;7.60;99.90;;;;;;5216096;28;20444;-51
2023/01/15 13:37:22;;;;;;;1.03;0.90;;;7.40;99.90;;;;;;5244108;28;20439;-51
2023/01/15 13:40:16;;;;;;;2.30;0.80;;;7.30;99.90;;;;;;5231756;28;20470;-52
2023/01/15 13:42:49;;;;;;;3.07;1.30;;;7.20;99.90;;;;;;5249769;28;20475;-52
2023/01/15 13:45:26;;;;;;;3.20;1.20;;;7.10;99.90;;;;;;5252630;28;20501;-51
2023/01/15 13:48:25;;;;;;;2.13;1.63;;;7.00;99.90;;;;;;5251875;28;20431;-51
2023/01/15 13:50:57;;;;;;;2.33;1.27;;;6.90;99.90;;;;;;5234716;28;20443;-51
2023/01/15 13:53:57;;;;;;;3.00;1.80;;;6.80;99.90;;;;;;5223663;28;20443;-51
2023/01/15 13:56:34;;;;;;;2.60;1.40;;;6.80;99.90;;;;;;5244135;28;20443;-50
2023/01/15 13:59:26;;;;;;;7.70;1.90;;;6.80;99.90;;;;;;5246796;28;20555;-50
2023/01/15 14:01:56;;;;;;;6.33;1.67;;;6.80;99.90;;;;;;5223085;28;20440;-52
2023/01/15 14:04:37;;;;;;;2.30;1.10;;;6.80;99.90;;;;;;5223649;28;20514;-50
2023/01/15 14:07:22;;;;;;;1.90;1.17;;;6.90;99.90;;;;;;5227344;28;20198;-51
2023/01/15 14:09:53;;;;;;;4.33;1.20;;;7.10;99.90;;;;;;5255550;28;20486;-51
2023/01/15 14:12:45;;;;;;;1.03;1.03;;;7.00;99.90;;;;;;5237485;28;20864;-51
2023/01/15 14:15:44;;;;;;;7.13;2.97;;;7.00;99.90;;;;;;5240038;28;20605;-52
2023/01/15 14:18:36;;;;;;;4.07;1.93;;;6.90;99.90;;;;;;5255708;28;20464;-51
2023/01/15 14:21:14;;;;;;;2.67;1.73;;;7.00;99.90;;;;;;5253648;28;20432;-52
2023/01/15 14:24:06;;;;;;;2.13;1.93;;;6.80;99.90;;;;;;5260834;28;20412;-52
2023/01/15 14:26:49;;;;;;;4.67;1.50;;;6.80;99.90;;;;;;5258226;28;20898;-51
2023/01/15 14:29:41;;;;;;;1.87;1.30;;;6.80;99.90;;;;;;5239865;28;20455;-50
2023/01/15 14:32:52;;;;;;;6.33;3.27;;;6.80;99.90;;;;;;5258461;28;20420;-51
2023/01/15 14:35:23;;;;;;;4.13;1.30;;;6.80;99.90;;;;;;5257985;28;20504;-51